Aérodrome :
LOGIN :

S'inscrire | Disclaimer

   EN    FR    IT 

 










Légende :    VFR   VFR Marginal   IFR   IFR Intensif   IFR Très Intensif
Visi : 
Plafond : 
>= 8 km
>= 3000ft
5 à 8 km
1000 à 3000 ft
1500m à 5 km
500 à 1000 ft
800 à 1500m
200 à 500 ft
< 800m
< 200 ft
Symboles :   Orages  Brouillard  Fortes neiges  Fortes précipitations  Vent > 20 kt
SIGMETs :   Divers  Orages  Givrage  Turbulence  Onde Orograph.  Cendres Volcan.







- Altitude de l'aérodrome : 1339 ft


ETHN - Niederstetten

DERNIER METAR :
  • 290620Z 26011KT 8000 RA BKN005 OVC025 14/13 Q0998 YLO YLO

METARs EXPIRÉS :
  • 290608Z 25012KT 4000 +RA BR BKN004 OVC025 14/13 Q0998 YLO YLO
  • 290520Z 27009KT 7000 RA BKN005 OVC025 14/14 Q0998 YLO YLO
  • 290420Z 27008KT 4000 RA BR BKN004 OVC025 15/14 Q0998 YLO YLO

TAF TAF ETHN
Valide du 29 à 05h jusqu'au 29 à 14h UTC


290400Z 2905/2914 25010KT 5000 RA BKN004
BECMG 2907/2909 25010KT 8000 -RA BKN010 OVC040
BECMG 2912/2914 24008KT 9999 NSW SCT020 BKN100
Pas de NOTAMs connus pour ce terrain.



MET'MAP, la Météo Aéronautique d'un coup d'oeil ! - Copyright ORBIFLY Décembre 2007 - Disclaimer

ORBIFLY MET'MAP TEAM :

Programmation & Développement : Alexandra Zaïnal
Conception & Développement : Baudouin d'Aumeries
Co-Programmation & Développement : Marc-Olivier Méhu
Soutien technique & logistique : Manuel Goepfert

Contact : metmap@orbifly.com




SOURCES & CREDITS :

   NOAA